Time;durP1;ratioP1;P1;durP2;ratioP2;P2;SDS_P1;SDS_P2;PMS_P1;PMS_P2;Temp;Humidity;BMP_temperature;BMP_pressure;BME280_temperature;BME280_humidity;BME280_pressure;Samples;Min_cycle;Max_cycle;Signal;HPM_P1;HPM_P2
2022/04/22 00:00:55;;;;;;;8.95;6.20;;;;;;;7.83;79.58;96442.38;4995072;28;20022;-61
2022/04/22 00:03:20;;;;;;;10.38;6.93;;;;;;;7.83;79.41;96432.78;4994993;28;20030;-62
2022/04/22 00:05:46;;;;;;;7.30;6.70;;;;;;;7.83;79.51;96432.78;4994906;28;20029;-63
2022/04/22 00:08:11;;;;;;;7.60;6.85;;;;;;;7.84;79.58;96434.50;4994843;28;20157;-63
2022/04/22 00:11:29;;;;;;;14.05;7.22;;;;;;;7.79;80.19;96435.50;4977394;28;20437;-65
2022/04/22 00:13:22;;;;;;;15.95;7.57;;;;;;;7.71;80.62;96427.94;4994820;28;20037;-62
2022/04/22 00:15:48;;;;;;;12.43;6.85;;;;;;;7.77;80.81;96417.31;4994602;28;20038;-64
2022/04/22 00:18:14;;;;;;;7.43;6.65;;;;;;;7.80;80.53;96417.25;4994752;28;20023;-63
2022/04/22 00:20:39;;;;;;;12.60;6.78;;;;;;;7.85;80.37;96424.91;4994798;28;20027;-65
2022/04/22 00:23:05;;;;;;;13.13;9.05;;;;;;;7.88;80.25;96417.03;4994631;28;20022;-62
2022/04/22 00:25:30;;;;;;;6.93;6.25;;;;;;;7.90;80.29;96423.06;4994757;28;20023;-61
2022/04/22 00:27:56;;;;;;;9.75;8.75;;;;;;;7.93;79.84;96424.72;4994561;28;20113;-63
2022/04/22 00:30:22;;;;;;;9.65;8.30;;;;;;;7.88;80.28;96422.22;4994424;28;20026;-65
2022/04/22 00:32:47;;;;;;;9.35;7.85;;;;;;;7.93;80.63;96428.19;4994488;28;20460;-64
2022/04/22 00:35:13;;;;;;;10.13;9.13;;;;;;;7.97;80.52;96424.56;4994323;28;20382;-65
2022/04/22 00:37:40;;;;;;;9.05;8.15;;;;;;;8.01;80.15;96433.13;4994012;28;20496;-65
2022/04/22 00:40:06;;;;;;;8.20;7.15;;;;;;;7.99;80.06;96434.94;4994291;28;20468;-65
2022/04/22 00:42:31;;;;;;;11.30;7.40;;;;;;;7.99;80.28;96432.34;4994327;28;20468;-61
2022/04/22 00:44:57;;;;;;;9.77;8.02;;;;;;;8.01;80.28;96433.13;4994282;28;20066;-62
2022/04/22 00:47:24;;;;;;;9.43;7.78;;;;;;;8.04;80.15;96432.22;4994111;28;20477;-63
2022/04/22 00:49:50;;;;;;;9.70;7.63;;;;;;;8.04;79.98;96430.44;4994135;28;20029;-63
2022/04/22 00:52:16;;;;;;;12.18;8.40;;;;;;;8.08;80.12;96424.25;4994086;28;20018;-63
2022/04/22 00:54:42;;;;;;;9.88;7.65;;;;;;;8.11;79.99;96430.25;4994064;28;20030;-64
2022/04/22 00:57:08;;;;;;;8.73;7.82;;;;;;;8.05;80.24;96437.38;4994082;28;20096;-65
2022/04/22 00:59:35;;;;;;;8.52;7.60;;;;;;;8.11;80.26;96438.09;4994085;28;20026;-63
2022/04/22 01:02:00;;;;;;;10.80;7.50;;;;;;;8.13;80.40;96434.53;4994076;28;20026;-64
2022/04/22 01:09:56;;;;;;;9.18;6.60;;;;;;;8.17;80.70;96422.28;4994167;28;20050;-62
2022/04/22 01:12:22;;;;;;;14.15;7.40;;;;;;;8.10;81.09;96419.00;4993883;28;20105;-63
2022/04/22 01:14:47;;;;;;;12.68;7.00;;;;;;;8.14;80.99;96410.19;4993875;28;20451;-62
2022/04/22 01:17:14;;;;;;;17.40;13.15;;;;;;;8.11;81.13;96407.69;4993777;28;20037;-62
2022/04/22 01:19:40;;;;;;;10.70;8.45;;;;;;;8.14;81.63;96402.38;4993824;28;20077;-64
2022/04/22 01:22:05;;;;;;;15.20;8.52;;;;;;;8.14;81.99;96388.47;4993697;28;20018;-63
2022/04/22 01:24:31;;;;;;;10.77;9.65;;;;;;;8.06;82.38;96376.56;4993666;28;20033;-63
2022/04/22 01:26:57;;;;;;;8.73;7.85;;;;;;;8.15;82.97;96370.19;4993599;28;20019;-61
2022/04/22 01:29:23;;;;;;;11.82;7.72;;;;;;;8.06;83.55;96358.31;4993550;28;20023;-61
2022/04/22 01:31:49;;;;;;;17.40;9.43;;;;;;;7.93;85.37;96341.34;4993530;28;20030;-61
2022/04/22 01:34:14;;;;;;;11.52;9.45;;;;;;;7.98;85.74;96318.63;4993673;28;20033;-62
2022/04/22 01:36:40;;;;;;;13.57;9.23;;;;;;;7.98;85.67;96316.03;4993605;28;20384;-64
2022/04/22 01:39:06;;;;;;;13.02;9.88;;;;;;;8.07;85.39;96318.31;4993490;28;20026;-61
2022/04/22 01:41:31;;;;;;;10.63;8.18;;;;;;;8.14;84.48;96313.78;4993237;28;20130;-60
2022/04/22 01:43:57;;;;;;;9.82;8.27;;;;;;;8.22;83.13;96322.19;4993489;28;20023;-61
2022/04/22 01:46:23;;;;;;;8.30;7.40;;;;;;;8.35;83.65;96324.41;4993444;28;20069;-63
2022/04/22 01:48:49;;;;;;;9.68;8.50;;;;;;;8.40;83.17;96322.50;4993471;28;20097;-62
2022/04/22 01:51:14;;;;;;;13.73;8.23;;;;;;;8.42;81.98;96346.78;4995971;28;20443;-63
2022/04/22 01:53:41;;;;;;;8.93;7.55;;;;;;;8.47;81.41;96346.63;4997327;28;20022;-63
2022/04/22 01:56:06;;;;;;;9.95;7.97;;;;;;;8.56;81.42;96343.75;4997281;28;20046;-61
2022/04/22 01:58:35;;;;;;;7.97;7.18;;;;;;;8.61;80.62;96340.97;4997309;28;20030;-62
2022/04/22 02:01:01;;;;;;;9.60;8.10;;;;;;;8.67;80.85;96338.16;4997268;28;20026;-63
2022/04/22 02:03:26;;;;;;;9.30;8.40;;;;;;;8.72;80.97;96335.41;4997263;28;20037;-60
2022/04/22 02:05:52;;;;;;;9.80;8.30;;;;;;;8.76;81.35;96339.59;4997101;28;20146;-64
2022/04/22 02:08:17;;;;;;;9.50;8.50;;;;;;;8.81;82.08;96332.50;4997007;28;20052;-64
2022/04/22 02:10:43;;;;;;;10.35;9.18;;;;;;;8.72;81.98;96331.06;4997159;28;20503;-64
2022/04/22 02:13:09;;;;;;;12.02;8.20;;;;;;;8.72;81.74;96343.22;4997079;28;20030;-61
2022/04/22 02:15:36;;;;;;;9.75;8.43;;;;;;;8.72;81.68;96353.66;4996901;28;20384;-62
2022/04/22 02:18:01;;;;;;;12.73;8.80;;;;;;;8.76;81.75;96368.28;4996900;28;20096;-62
2022/04/22 02:20:27;;;;;;;9.60;8.70;;;;;;;8.74;82.09;96358.81;4996861;28;20473;-63
2022/04/22 02:22:52;;;;;;;9.38;8.40;;;;;;;8.69;82.32;96354.63;4996805;28;20508;-63
2022/04/22 02:25:18;;;;;;;9.35;8.02;;;;;;;8.74;81.72;96370.13;4996729;28;20022;-62
2022/04/22 02:30:28;;;;;;;10.98;8.57;;;;;;;8.81;81.51;96370.75;4996997;28;20072;-64
2022/04/22 02:32:54;;;;;;;8.73;7.65;;;;;;;8.79;81.31;96373.41;4996576;28;20030;-64
2022/04/22 02:35:21;;;;;;;12.77;9.07;;;;;;;8.73;81.44;96376.22;4996404;28;20025;-63
2022/04/22 02:37:50;;;;;;;11.00;8.60;;;;;;;8.72;81.58;96382.34;4996663;28;20018;-63
2022/04/22 02:45:26;;;;;;;11.48;8.70;;;;;;;8.79;81.71;96386.44;4996302;28;20046;-64
2022/04/22 02:45:47;;;;;;;9.18;8.32;;;;;;;8.75;81.89;96391.81;4996766;28;20049;-64
2022/04/22 02:48:13;;;;;;;10.25;9.18;;;;;;;8.71;82.02;96386.72;4996383;28;20469;-63
2022/04/22 02:50:38;;;;;;;13.10;9.95;;;;;;;8.62;82.42;96380.94;4996485;28;20026;-63
2022/04/22 02:53:04;;;;;;;11.18;9.23;;;;;;;8.59;82.61;96384.50;4996255;28;20027;-65
2022/04/22 02:55:30;;;;;;;10.68;9.57;;;;;;;8.63;82.85;96370.47;4996172;28;20038;-63
2022/04/22 02:57:56;;;;;;;15.05;10.43;;;;;;;8.45;83.33;96358.84;4996158;28;20109;-61
2022/04/22 03:00:23;;;;;;;14.05;10.63;;;;;;;8.39;83.30;96359.03;4995958;28;20373;-62
2022/04/22 03:02:49;;;;;;;11.73;10.52;;;;;;;8.34;83.70;96357.44;4995747;28;20019;-64
2022/04/22 03:05:14;;;;;;;14.32;10.65;;;;;;;8.25;83.87;96357.72;4996024;28;20026;-64
2022/04/22 03:07:40;;;;;;;13.40;12.05;;;;;;;8.31;84.23;96348.88;4995992;28;20161;-63
2022/04/22 03:10:06;;;;;;;10.65;9.55;;;;;;;8.30;84.81;96345.41;4995910;28;20019;-64
2022/04/22 03:12:33;;;;;;;10.73;9.63;;;;;;;8.33;84.89;96353.13;4996009;28;20026;-62
2022/04/22 03:14:58;;;;;;;13.23;10.55;;;;;;;8.37;84.49;96351.25;4995927;28;20030;-64
2022/04/22 03:17:24;;;;;;;12.20;9.23;;;;;;;8.42;84.40;96340.69;4995787;28;20106;-64
2022/04/22 03:19:51;;;;;;;10.13;9.10;;;;;;;8.44;84.22;96338.91;4995824;28;20472;-64
2022/04/22 03:22:16;;;;;;;10.15;8.68;;;;;;;8.47;84.13;96336.19;4995697;28;20033;-63
2022/04/22 03:24:43;;;;;;;11.73;9.63;;;;;;;8.48;84.04;96337.91;4995663;28;20022;-62
2022/04/22 03:27:09;;;;;;;11.18;9.85;;;;;;;8.50;83.68;96333.50;4995652;28;20114;-62
2022/04/22 03:29:35;;;;;;;13.00;10.73;;;;;;;8.50;83.89;96332.63;4995625;28;20050;-62
2022/04/22 03:32:01;;;;;;;14.35;12.00;;;;;;;8.59;84.25;96338.44;4995451;28;20053;-63
2022/04/22 03:34:27;;;;;;;10.65;9.52;;;;;;;8.57;84.38;96352.41;4995524;28;20042;-63
2022/04/22 03:36:52;;;;;;;14.90;12.00;;;;;;;8.63;84.45;96367.00;4995495;28;20030;-63
2022/04/22 03:39:18;;;;;;;14.10;11.90;;;;;;;8.46;84.87;96379.66;4995190;28;20057;-64
2022/04/22 03:41:44;;;;;;;12.70;11.40;;;;;;;8.38;84.58;96378.19;4995449;28;20030;-62
2022/04/22 03:44:10;;;;;;;15.88;11.55;;;;;;;8.41;84.76;96386.78;4995244;28;20472;-62
2022/04/22 03:46:36;;;;;;;13.02;10.82;;;;;;;8.43;84.22;96373.69;4995310;28;20033;-63
2022/04/22 03:49:04;;;;;;;11.40;10.30;;;;;;;8.48;83.85;96371.78;4995225;28;20037;-63
2022/04/22 03:51:30;;;;;;;12.27;10.18;;;;;;;8.51;83.75;96373.44;4995245;28;20058;-62
2022/04/22 03:53:56;;;;;;;12.35;10.27;;;;;;;8.56;83.46;96363.75;4995250;28;20496;-63
2022/04/22 03:59:06;;;;;;;12.90;9.88;;;;;;;8.52;83.46;96375.16;4995153;28;20113;-63
2022/04/22 04:01:32;;;;;;;10.55;9.50;;;;;;;8.46;83.42;96371.00;4995001;28;20050;-62
2022/04/22 04:03:57;;;;;;;10.85;9.80;;;;;;;8.43;83.49;96376.31;4994967;28;20027;-63
2022/04/22 04:06:24;;;;;;;13.27;10.13;;;;;;;8.35;83.66;96368.72;4995009;28;20022;-62
2022/04/22 04:17:04;;;;;;;11.60;10.40;;;;;;;8.14;85.19;96341.59;4994834;28;20132;-62
2022/04/22 04:24:57;;;;;;;11.07;9.57;;;;;;;8.23;85.53;96341.31;4994697;28;20042;-64
2022/04/22 04:27:22;;;;;;;11.75;10.35;;;;;;;8.22;85.87;96337.84;4994609;28;20019;-63
2022/04/22 04:29:48;;;;;;;12.27;10.27;;;;;;;8.28;85.96;96331.56;4994477;28;20081;-65
2022/04/22 04:32:17;;;;;;;10.70;9.60;;;;;;;8.33;85.74;96334.03;4994509;28;20077;-63
2022/04/22 04:34:44;;;;;;;12.95;9.75;;;;;;;8.40;85.72;96334.69;4994373;28;20026;-63
2022/04/22 04:37:10;;;;;;;11.88;10.60;;;;;;;8.40;85.55;96335.53;4994325;28;20481;-64
2022/04/22 04:39:35;;;;;;;10.57;9.48;;;;;;;8.49;85.26;96343.97;4994119;28;20185;-64
2022/04/22 04:42:02;;;;;;;11.82;9.63;;;;;;;8.54;85.26;96347.28;4994228;28;20109;-63
2022/04/22 04:44:28;;;;;;;10.57;9.43;;;;;;;8.61;85.31;96351.41;4994261;28;20595;-62
2022/04/22 04:46:54;;;;;;;11.77;9.93;;;;;;;8.69;84.82;96348.53;4994172;28;20107;-62
2022/04/22 04:49:20;;;;;;;11.57;10.38;;;;;;;8.77;84.36;96354.38;4994023;28;20476;-64
2022/04/22 04:51:45;;;;;;;12.23;10.68;;;;;;;8.87;84.09;96352.28;4994121;28;20030;-64
2022/04/22 04:54:11;;;;;;;11.52;10.38;;;;;;;8.94;83.51;96360.78;4994030;28;20081;-64
2022/04/22 04:56:37;;;;;;;10.82;9.80;;;;;;;9.03;83.39;96370.03;4993938;28;20034;-63
2022/04/22 04:59:03;;;;;;;10.48;9.38;;;;;;;9.07;83.51;96375.09;4993951;28;20112;-63
2022/04/22 05:01:28;;;;;;;11.52;9.63;;;;;;;9.08;83.23;96376.78;4994012;28;20054;-61
2022/04/22 05:03:54;;;;;;;10.48;8.93;;;;;;;9.12;82.82;96380.13;4993994;28;20026;-63
2022/04/22 05:06:20;;;;;;;13.10;10.23;;;;;;;9.12;82.82;96390.56;4993882;28;20035;-64
2022/04/22 05:08:45;;;;;;;13.20;10.05;;;;;;;9.16;82.55;96392.19;4993786;28;20076;-64
2022/04/22 05:11:12;;;;;;;11.30;10.20;;;;;;;9.20;82.12;96385.94;4993857;28;20037;-64
2022/04/22 05:13:37;;;;;;;11.90;9.77;;;;;;;9.25;81.76;96392.75;4993751;28;20464;-64
2022/04/22 05:16:03;;;;;;;11.68;9.52;;;;;;;9.26;81.74;96397.06;4993795;28;20026;-62
2022/04/22 05:18:30;;;;;;;12.15;9.90;;;;;;;9.24;81.66;96404.94;4993786;28;20091;-63
2022/04/22 05:20:56;;;;;;;14.88;10.65;;;;;;;9.19;82.16;96401.66;4993673;28;20022;-63
2022/04/22 05:23:21;;;;;;;11.52;10.43;;;;;;;9.25;81.52;96406.69;4993746;28;20501;-62
2022/04/22 05:25:48;;;;;;;10.63;9.52;;;;;;;9.26;81.23;96403.16;4993382;28;20030;-62
2022/04/22 05:28:14;;;;;;;13.10;9.98;;;;;;;9.23;81.24;96396.28;4993620;28;20366;-62
2022/04/22 05:33:43;;;;;;;10.93;9.75;;;;;;;9.25;80.89;96401.47;4933855;29;20067;-63
2022/04/22 05:36:09;;;;;;;13.50;10.77;;;;;;;9.27;80.89;96398.78;4933506;29;20063;-62
2022/04/22 05:38:35;;;;;;;14.68;11.20;;;;;;;9.32;80.79;96408.16;4961248;28;20030;-63
2022/04/22 05:41:00;;;;;;;12.05;10.40;;;;;;;9.31;80.90;96400.38;4993322;28;20460;-63
2022/04/22 05:43:26;;;;;;;12.38;11.07;;;;;;;9.29;81.34;96395.22;4993562;28;20465;-64
2022/04/22 05:45:53;;;;;;;15.57;11.93;;;;;;;9.28;81.53;96403.09;4993542;28;20421;-63
2022/04/22 05:48:18;;;;;;;12.90;11.63;;;;;;;9.28;81.65;96414.41;4993546;28;20031;-62
2022/04/22 05:50:44;;;;;;;13.95;11.85;;;;;;;9.31;81.83;96429.09;4993451;28;20097;-63
2022/04/22 05:53:10;;;;;;;12.80;11.60;;;;;;;9.39;81.78;96424.44;4993570;28;20092;-64
2022/04/22 05:55:36;;;;;;;15.43;13.27;;;;;;;9.45;81.88;96436.47;4993449;28;20421;-64
2022/04/22 05:58:02;;;;;;;16.10;13.15;;;;;;;9.50;82.22;96434.53;4993483;28;20026;-62
2022/04/22 06:00:31;;;;;;;15.23;11.05;;;;;;;9.57;82.09;96437.78;4993390;28;20484;-64
2022/04/22 06:02:58;;;;;;;11.25;10.15;;;;;;;9.48;81.93;96433.72;4993407;28;20026;-64
2022/04/22 06:05:25;;;;;;;13.05;10.02;;;;;;;9.51;82.19;96449.28;4993339;28;20022;-64
2022/04/22 06:10:31;;;;;;;11.57;10.45;;;;;;;9.53;82.36;96450.09;4993297;28;20480;-62
2022/04/22 06:10:37;;;;;;;12.82;11.20;;;;;;;9.56;82.49;96431.69;4993241;28;20030;-63
2022/04/22 06:13:04;;;;;;;13.02;10.73;;;;;;;9.50;83.14;96426.69;4993330;28;20104;-61
2022/04/22 06:15:30;;;;;;;12.05;10.82;;;;;;;9.47;82.85;96422.44;4993194;28;20031;-63
2022/04/22 06:17:57;;;;;;;12.43;11.23;;;;;;;9.49;83.18;96419.78;4993250;28;20048;-62
2022/04/22 06:20:23;;;;;;;11.73;10.57;;;;;;;9.52;83.41;96424.03;4993252;28;20021;-61
2022/04/22 06:22:48;;;;;;;11.77;10.68;;;;;;;9.56;83.19;96421.25;4993179;28;20113;-64
2022/04/22 06:25:14;;;;;;;13.80;11.30;;;;;;;9.58;83.57;96416.81;4993070;28;20097;-61
2022/04/22 06:27:43;;;;;;;15.93;10.95;;;;;;;9.52;84.10;96414.44;4993163;28;20524;-63
2022/04/22 06:30:17;;;;;;;11.55;10.35;;;;;;;9.57;84.15;96419.50;4993168;28;20022;-64
2022/04/22 06:32:48;;;;;;;10.73;9.65;;;;;;;9.60;84.06;96416.75;4993125;28;20034;-62
2022/04/22 06:35:15;;;;;;;14.43;11.18;;;;;;;9.66;84.44;96420.94;4993017;28;20058;-62
2022/04/22 06:37:43;;;;;;;13.85;10.63;;;;;;;9.66;83.87;96415.72;4996083;28;20026;-65
2022/04/22 06:45:47;;;;;;;12.73;10.40;;;;;;;9.75;84.34;96431.03;4996830;28;20046;-63
2022/04/22 06:48:17;;;;;;;12.68;11.35;;;;;;;9.80;84.43;96421.28;4996413;28;20054;-63
2022/04/22 06:50:44;;;;;;;13.38;11.90;;;;;;;9.88;84.05;96427.97;4996381;28;20061;-63
2022/04/22 06:53:11;;;;;;;12.23;10.52;;;;;;;9.94;83.63;96431.19;4996315;28;20026;-64
2022/04/22 06:55:38;;;;;;;11.95;10.75;;;;;;;10.00;83.48;96422.28;4996229;28;20428;-64
2022/04/22 06:58:09;;;;;;;14.23;11.38;;;;;;;10.07;83.50;96428.13;4996245;28;20113;-64
2022/04/22 07:00:34;;;;;;;11.70;10.45;;;;;;;10.09;82.94;96442.00;4996202;28;20094;-62
2022/04/22 07:03:00;;;;;;;15.95;12.48;;;;;;;10.11;83.51;96438.41;4996166;28;20125;-63
2022/04/22 07:05:26;;;;;;;10.30;9.30;;;;;;;10.15;82.45;96430.47;4978879;28;20026;-62
2022/04/22 07:07:52;;;;;;;10.60;9.40;;;;;;;10.16;82.53;96430.41;4996058;28;20377;-61
2022/04/22 07:10:19;;;;;;;11.38;9.85;;;;;;;10.22;82.83;96431.91;4996027;28;20038;-63
2022/04/22 07:12:44;;;;;;;11.75;10.30;;;;;;;10.27;83.04;96440.47;4996089;28;20089;-62
2022/04/22 07:15:10;;;;;;;10.60;9.50;;;;;;;10.28;83.01;96447.38;4995985;28;20030;-63
2022/04/22 07:17:38;;;;;;;13.82;9.43;;;;;;;10.39;82.58;96446.13;4995966;28;20420;-62
2022/04/22 07:20:12;;;;;;;11.63;9.35;;;;;;;10.46;81.35;96429.28;4995866;28;20023;-64
2022/04/22 07:22:40;;;;;;;13.27;8.02;;;;;;;10.45;80.52;96419.72;4995770;28;20054;-64
2022/04/22 07:25:07;;;;;;;10.10;8.02;;;;;;;10.46;79.45;96424.94;4995705;28;20085;-64
2022/04/22 07:27:35;;;;;;;14.80;8.07;;;;;;;10.44;80.12;96421.47;4995658;28;20435;-65
2022/04/22 07:30:02;;;;;;;11.63;8.98;;;;;;;10.48;81.28;96433.53;4995684;28;20045;-63
2022/04/22 07:32:28;;;;;;;12.38;8.90;;;;;;;10.52;82.11;96425.59;4995767;28;20027;-63
2022/04/22 07:34:56;;;;;;;10.73;8.90;;;;;;;10.56;82.08;96403.63;4995661;28;20027;-65
2022/04/22 07:37:23;;;;;;;12.65;11.27;;;;;;;10.59;81.96;96375.59;4995537;28;20431;-64
2022/04/22 07:39:49;;;;;;;10.00;8.35;;;;;;;10.61;81.94;96355.47;4994968;28;20042;-64
2022/04/22 07:42:17;;;;;;;11.05;9.20;;;;;;;10.64;81.92;96343.16;4995533;28;20030;-63
2022/04/22 07:47:37;;;;;;;8.30;7.40;;;;;;;10.59;80.57;96332.88;4995657;28;20065;-63
2022/04/22 07:50:08;;;;;;;9.68;8.77;;;;;;;10.76;81.61;96331.31;4995208;28;20037;-64
2022/04/22 07:52:36;;;;;;;9.40;6.97;;;;;;;10.93;79.11;96325.38;4995359;28;20105;-63
2022/04/22 07:55:03;;;;;;;11.30;7.75;;;;;;;10.94;78.34;96303.53;4995225;28;20030;-63
2022/04/22 07:57:30;;;;;;;10.15;7.22;;;;;;;11.03;77.59;96297.03;4995107;28;20049;-62
2022/04/22 07:59:56;;;;;;;7.25;6.10;;;;;;;11.12;76.08;96288.78;4995057;28;20041;-63
2022/04/22 08:02:23;;;;;;;10.73;8.68;;;;;;;11.33;78.68;96294.84;4995034;28;20018;-61
2022/04/22 08:04:50;;;;;;;12.70;8.38;;;;;;;11.47;77.59;96286.34;4995124;28;20488;-63
2022/04/22 08:07:18;;;;;;;8.98;7.07;;;;;;;11.53;75.47;96282.59;4995044;28;20491;-61
2022/04/22 08:09:46;;;;;;;15.55;10.95;;;;;;;11.55;76.75;96280.75;4994893;28;20092;-62
2022/04/22 08:12:16;;;;;;;15.68;11.77;;;;;;;11.75;76.81;96264.09;4994855;28;20499;-63
2022/04/22 08:14:42;;;;;;;12.80;9.07;;;;;;;11.82;75.55;96279.53;4994946;28;20034;-62
2022/04/22 08:17:08;;;;;;;15.05;9.55;;;;;;;11.98;75.98;96291.00;4994703;28;20104;-63
2022/04/22 08:19:34;;;;;;;10.73;7.72;;;;;;;12.18;73.67;96291.84;4994720;28;20033;-61
2022/04/22 08:22:01;;;;;;;7.80;6.05;;;;;;;12.39;73.57;96294.34;4994727;28;20026;-63
2022/04/22 08:24:26;;;;;;;7.78;6.97;;;;;;;12.58;73.16;96294.28;4994569;28;20385;-61
2022/04/22 08:26:52;;;;;;;6.50;5.82;;;;;;;12.81;71.66;96301.91;4994619;28;20027;-62
2022/04/22 08:29:18;;;;;;;9.55;5.80;;;;;;;13.16;70.22;96296.63;4994586;28;20026;-63
2022/04/22 08:31:45;;;;;;;6.25;5.38;;;;;;;13.38;68.70;96288.47;4994520;28;20030;-62
2022/04/22 08:34:11;;;;;;;5.78;5.28;;;;;;;13.64;67.96;96296.72;4994566;28;20097;-62
2022/04/22 08:36:37;;;;;;;8.35;4.30;;;;;;;13.76;65.38;96289.13;4994352;28;20027;-62
2022/04/22 08:39:04;;;;;;;7.70;3.83;;;;;;;13.99;64.01;96289.63;4994270;28;20049;-61
2022/04/22 08:41:35;;;;;;;9.98;4.05;;;;;;;14.03;61.32;96288.53;4993970;28;20057;-63
2022/04/22 08:44:01;;;;;;;7.93;4.30;;;;;;;14.06;63.66;96280.44;4994336;28;20045;-61
2022/04/22 08:51:58;;;;;;;6.57;4.30;;;;;;;14.13;62.26;96294.97;4994512;28;20487;-64
2022/04/22 08:54:27;;;;;;;6.32;4.22;;;;;;;14.01;63.85;96291.25;4994213;28;20053;-62
2022/04/22 08:56:56;;;;;;;5.93;3.67;;;;;;;13.98;60.66;96303.72;4994142;28;20084;-63
2022/04/22 08:59:22;;;;;;;6.88;4.43;;;;;;;13.98;61.66;96299.31;4993737;28;20041;-63
2022/04/22 09:01:48;;;;;;;9.98;4.45;;;;;;;13.86;62.71;96290.31;4993934;28;20027;-62
2022/04/22 09:04:14;;;;;;;6.10;4.07;;;;;;;13.85;63.32;96291.22;4994080;28;20026;-63
2022/04/22 09:06:41;;;;;;;6.10;3.80;;;;;;;13.93;64.00;96297.88;4993899;28;20491;-63
2022/04/22 09:09:07;;;;;;;5.20;4.35;;;;;;;13.99;62.86;96297.50;4993917;28;20476;-64
2022/04/22 09:11:52;;;;;;;7.22;4.15;;;;;;;13.98;62.52;96301.94;4993924;28;20022;-61
2022/04/22 09:14:23;;;;;;;7.20;4.68;;;;;;;13.97;64.09;96316.00;4993189;28;20512;-63
2022/04/22 09:16:50;;;;;;;5.85;3.80;;;;;;;13.99;60.19;96321.16;4993745;28;20034;-64
2022/04/22 09:19:18;;;;;;;6.28;4.38;;;;;;;13.79;61.73;96328.41;4993810;28;20168;-62
2022/04/22 09:21:55;;;;;;;6.47;4.40;;;;;;;13.84;61.50;96320.22;4993857;28;20384;-62
2022/04/22 09:24:21;;;;;;;8.40;5.00;;;;;;;13.97;64.02;96318.63;4993729;28;20034;-63
2022/04/22 09:27:11;;;;;;;7.05;4.40;;;;;;;14.15;61.09;96316.75;4993811;28;20022;-63
2022/04/22 09:29:41;;;;;;;8.02;4.70;;;;;;;14.43;58.89;96324.03;4993765;28;20455;-62
2022/04/22 09:32:10;;;;;;;7.13;5.13;;;;;;;14.62;62.78;96318.53;4993709;28;20026;-63
2022/04/22 09:34:39;;;;;;;5.13;4.25;;;;;;;14.97;61.31;96302.50;4993615;28;20053;-64
2022/04/22 09:42:54;;;;;;;5.93;4.30;;;;;;;15.58;58.51;96288.31;4993918;28;20088;-62
2022/04/22 09:45:21;;;;;;;4.32;3.30;;;;;;;15.75;55.31;96286.41;4993561;28;20030;-63
2022/04/22 09:47:58;;;;;;;6.30;3.28;;;;;;;16.00;54.16;96279.59;4993561;28;20030;-62
2022/04/22 09:50:55;;;;;;;8.00;3.80;;;;;;;15.96;55.17;96283.34;4993409;28;20026;-64
2022/04/22 09:53:33;;;;;;;7.95;3.03;;;;;;;16.29;52.98;96274.22;4993578;28;20042;-61
2022/04/22 09:56:09;;;;;;;8.48;3.58;;;;;;;16.23;52.97;96274.63;4993389;28;20038;-62
2022/04/22 09:58:36;;;;;;;6.72;3.30;;;;;;;16.09;50.98;96286.94;4993435;28;20081;-65
2022/04/22 10:01:06;;;;;;;4.40;2.95;;;;;;;16.13;54.03;96282.28;4993287;28;20014;-61
2022/04/22 10:03:36;;;;;;;9.05;3.55;;;;;;;16.47;56.76;96285.38;4993255;28;20025;-64
2022/04/22 10:06:03;;;;;;;;;;;;;;;16.77;50.10;96280.78;4993685;28;20022;-63
2022/04/22 10:08:56;;;;;;;9.52;3.15;;;;;;;16.39;50.60;96283.25;4993416;28;20322;-64
2022/04/22 10:11:24;;;;;;;4.63;3.10;;;;;;;16.39;50.60;96269.19;4953643;28;20510;-63
2022/04/22 10:13:50;;;;;;;6.82;3.50;;;;;;;16.51;50.96;96270.16;4939847;29;20443;-64
2022/04/22 10:16:16;;;;;;;6.05;3.63;;;;;;;16.33;52.03;96265.16;4956044;29;20074;-64
2022/04/22 10:18:43;;;;;;;7.50;3.90;;;;;;;16.58;52.77;96252.13;4956100;29;20099;-62
2022/04/22 10:21:10;;;;;;;6.72;3.90;;;;;;;16.42;51.94;96268.97;4956049;29;20110;-62
2022/04/22 10:23:37;;;;;;;9.00;3.78;;;;;;;16.49;51.94;96258.84;4956074;29;20063;-64
2022/04/22 10:26:04;;;;;;;4.90;3.67;;;;;;;16.27;50.66;96260.28;4956082;29;20103;-61
2022/04/22 10:28:32;;;;;;;4.97;3.70;;;;;;;15.91;52.20;96252.00;4955987;29;20027;-61
2022/04/22 10:31:00;;;;;;;6.85;3.40;;;;;;;15.69;51.97;96248.09;4955996;29;20031;-63
2022/04/22 10:33:37;;;;;;;5.53;4.20;;;;;;;15.44;54.85;96251.44;4955935;29;20035;-60
2022/04/22 10:36:04;;;;;;;8.35;4.53;;;;;;;15.61;53.94;96251.22;4955798;29;20050;-63
2022/04/22 10:38:43;;;;;;;13.07;3.83;;;;;;;15.88;55.48;96220.53;4955899;29;20031;-62
2022/04/22 10:41:13;;;;;;;7.53;4.38;;;;;;;15.97;53.65;96235.81;4957088;28;20051;-63
2022/04/22 10:43:39;;;;;;;6.45;3.78;;;;;;;15.70;53.04;96244.50;4996533;28;20121;-64
2022/04/22 10:49:14;;;;;;;5.95;3.85;;;;;;;15.81;55.88;96224.50;4996857;28;20132;-63
2022/04/22 10:52:03;;;;;;;5.55;3.80;;;;;;;15.76;55.22;96235.34;4996368;28;20097;-63
2022/04/22 10:54:53;;;;;;;4.38;3.40;;;;;;;15.69;54.17;96223.50;4996365;28;20034;-64
2022/04/22 10:57:21;;;;;;;9.80;3.80;;;;;;;15.79;55.96;96221.97;4996211;28;20493;-64
2022/04/22 11:00:07;;;;;;;6.03;3.40;;;;;;;15.83;53.30;96205.00;4996232;28;20347;-63
2022/04/22 11:02:41;;;;;;;6.47;3.70;;;;;;;16.03;54.96;96216.09;4983005;28;20485;-65
2022/04/22 11:05:19;;;;;;;7.97;3.65;;;;;;;16.04;54.38;96205.44;4996211;28;20019;-63
2022/04/22 11:07:51;;;;;;;4.65;3.35;;;;;;;15.90;53.31;96194.91;4996036;28;20034;-62
2022/04/22 11:10:25;;;;;;;7.65;3.70;;;;;;;16.06;54.94;96196.56;4996002;28;20022;-63
2022/04/22 11:12:54;;;;;;;5.88;3.40;;;;;;;16.32;54.71;96178.19;4996068;28;20122;-64
2022/04/22 11:15:42;;;;;;;3.72;3.28;;;;;;;16.51;53.58;96178.63;4995975;28;20085;-62
2022/04/22 11:18:12;;;;;;;5.47;3.28;;;;;;;16.63;54.16;96176.94;4996047;28;20036;-63
2022/04/22 11:20:42;;;;;;;6.80;3.25;;;;;;;16.84;51.54;96184.34;4995992;28;20048;-62
2022/04/22 11:23:12;;;;;;;7.07;3.47;;;;;;;16.94;53.31;96181.88;4995477;28;20444;-63
2022/04/22 11:25:38;;;;;;;4.40;3.13;;;;;;;16.73;52.17;96193.00;4996053;28;20038;-63
2022/04/22 11:28:05;;;;;;;3.70;2.63;;;;;;;16.23;52.48;96185.78;4995755;28;20614;-63
2022/04/22 11:30:32;;;;;;;6.20;3.40;;;;;;;16.22;52.60;96176.13;4995677;28;20022;-63
2022/04/22 11:33:27;;;;;;;5.00;2.60;;;;;;;16.25;52.18;96175.09;4995705;28;20042;-64
2022/04/22 11:35:58;;;;;;;6.75;3.25;;;;;;;16.01;53.36;96173.97;4995630;28;20113;-63
2022/04/22 11:38:25;;;;;;;6.82;3.20;;;;;;;15.94;55.04;96185.00;4995490;28;20039;-64
2022/04/22 11:40:51;;;;;;;6.38;3.50;;;;;;;15.87;55.13;96181.94;4995208;28;20054;-63
2022/04/22 11:43:21;;;;;;;5.40;3.40;;;;;;;15.57;56.32;96175.91;4995377;28;20023;-64
2022/04/22 11:45:49;;;;;;;12.80;3.90;;;;;;;15.35;57.51;96160.63;4995548;28;20062;-64
2022/04/22 11:48:20;;;;;;;9.07;3.70;;;;;;;15.43;58.05;96170.66;4995418;28;20393;-62
2022/04/22 11:50:47;;;;;;;6.30;3.60;;;;;;;15.46;59.07;96150.22;4995343;28;20033;-62
2022/04/22 11:53:18;;;;;;;5.00;3.35;;;;;;;15.67;56.82;96155.06;4995196;28;20026;-62
2022/04/22 11:55:47;;;;;;;4.93;3.60;;;;;;;15.65;57.13;96154.31;4995180;28;20035;-61
2022/04/22 11:58:19;;;;;;;5.57;3.40;;;;;;;15.76;57.56;96156.25;4995082;28;20551;-63
2022/04/22 12:06:15;;;;;;;7.03;3.58;;;;;;;15.64;58.33;96145.56;4995344;28;20045;-63
2022/04/22 12:09:03;;;;;;;6.60;3.80;;;;;;;15.69;57.55;96132.09;4994960;28;20034;-64
2022/04/22 12:11:30;;;;;;;4.85;2.97;;;;;;;15.70;57.87;96132.91;4994895;28;20029;-65
2022/04/22 12:13:56;;;;;;;11.55;3.88;;;;;;;15.61;58.55;96129.94;4994875;28;20129;-63
2022/04/22 12:16:25;;;;;;;9.85;3.33;;;;;;;15.77;57.73;96121.88;4994792;28;20026;-64
2022/04/22 12:18:55;;;;;;;7.18;3.20;;;;;;;15.81;57.52;96119.91;4994849;28;20480;-62
2022/04/22 12:21:23;;;;;;;7.32;3.08;;;;;;;15.94;57.15;96112.00;4994827;28;20029;-64
2022/04/22 12:23:50;;;;;;;4.57;3.13;;;;;;;16.08;56.83;96097.09;4994681;28;20034;-65
2022/04/22 12:26:19;;;;;;;8.95;3.08;;;;;;;16.09;56.45;96098.75;4994643;28;20089;-64
2022/04/22 12:29:05;;;;;;;10.32;3.17;;;;;;;16.16;57.20;96089.47;4994672;28;20034;-64
2022/04/22 12:31:33;;;;;;;8.18;3.20;;;;;;;16.27;55.80;96094.03;4994551;28;20034;-63
2022/04/22 12:34:04;;;;;;;5.03;2.88;;;;;;;16.40;55.90;96092.25;4993760;28;20034;-64